sensor_id;sensor_type;location;lat;lon;timestamp;temperature;humidity
1455;DHT22;721;48.168;12.818;2023-03-13T00:01:44;6.50;39.90
1455;DHT22;721;48.168;12.818;2023-03-13T00:04:11;6.60;39.00
1455;DHT22;721;48.168;12.818;2023-03-13T00:06:38;6.60;39.10
1455;DHT22;721;48.168;12.818;2023-03-13T00:09:08;6.60;39.40
1455;DHT22;721;48.168;12.818;2023-03-13T00:11:35;6.60;38.40
1455;DHT22;721;48.168;12.818;2023-03-13T00:14:03;6.70;39.00
1455;DHT22;721;48.168;12.818;2023-03-13T00:16:31;6.70;37.20
1455;DHT22;721;48.168;12.818;2023-03-13T00:18:58;6.60;38.10
1455;DHT22;721;48.168;12.818;2023-03-13T00:21:27;6.60;37.30
1455;DHT22;721;48.168;12.818;2023-03-13T00:23:54;6.40;36.50
1455;DHT22;721;48.168;12.818;2023-03-13T00:26:24;6.40;36.00
1455;DHT22;721;48.168;12.818;2023-03-13T00:28:51;6.40;36.50
1455;DHT22;721;48.168;12.818;2023-03-13T00:31:20;6.40;36.10
1455;DHT22;721;48.168;12.818;2023-03-13T00:33:48;6.30;36.30
1455;DHT22;721;48.168;12.818;2023-03-13T00:36:17;6.20;36.80
1455;DHT22;721;48.168;12.818;2023-03-13T00:38:45;6.20;36.60
1455;DHT22;721;48.168;12.818;2023-03-13T00:41:15;6.10;39.10
1455;DHT22;721;48.168;12.818;2023-03-13T00:43:44;6.00;38.30
1455;DHT22;721;48.168;12.818;2023-03-13T00:46:12;5.80;41.10
1455;DHT22;721;48.168;12.818;2023-03-13T00:48:39;5.90;40.50
1455;DHT22;721;48.168;12.818;2023-03-13T00:51:07;5.90;40.30
1455;DHT22;721;48.168;12.818;2023-03-13T00:53:34;5.80;39.70
1455;DHT22;721;48.168;12.818;2023-03-13T00:56:03;5.80;40.50
1455;DHT22;721;48.168;12.818;2023-03-13T00:58:33;5.70;41.40
1455;DHT22;721;48.168;12.818;2023-03-13T01:01:07;5.70;42.80
1455;DHT22;721;48.168;12.818;2023-03-13T01:03:35;5.70;43.60
1455;DHT22;721;48.168;12.818;2023-03-13T01:06:05;5.70;43.20
1455;DHT22;721;48.168;12.818;2023-03-13T01:08:32;5.70;41.30
1455;DHT22;721;48.168;12.818;2023-03-13T01:10:59;5.60;42.70
1455;DHT22;721;48.168;12.818;2023-03-13T01:13:27;5.60;43.10
1455;DHT22;721;48.168;12.818;2023-03-13T01:15:54;5.60;43.30
1455;DHT22;721;48.168;12.818;2023-03-13T01:18:22;5.60;42.30
1455;DHT22;721;48.168;12.818;2023-03-13T01:20:49;5.60;43.20
1455;DHT22;721;48.168;12.818;2023-03-13T01:23:16;5.60;42.30
1455;DHT22;721;48.168;12.818;2023-03-13T01:25:42;5.50;42.20
1455;DHT22;721;48.168;12.818;2023-03-13T01:28:09;5.50;41.10
1455;DHT22;721;48.168;12.818;2023-03-13T01:30:36;5.60;41.60
1455;DHT22;721;48.168;12.818;2023-03-13T01:33:03;5.50;42.20
1455;DHT22;721;48.168;12.818;2023-03-13T01:35:31;5.30;43.20
1455;DHT22;721;48.168;12.818;2023-03-13T01:37:58;5.20;44.90
1455;DHT22;721;48.168;12.818;2023-03-13T01:40:24;5.20;47.00
1455;DHT22;721;48.168;12.818;2023-03-13T01:42:53;5.20;46.60
1455;DHT22;721;48.168;12.818;2023-03-13T01:45:58;5.50;46.60
1455;DHT22;721;48.168;12.818;2023-03-13T01:48:30;5.30;44.60
1455;DHT22;721;48.168;12.818;2023-03-13T01:51:02;5.30;42.00
1455;DHT22;721;48.168;12.818;2023-03-13T01:53:32;5.30;42.90
1455;DHT22;721;48.168;12.818;2023-03-13T01:56:01;5.10;44.00
1455;DHT22;721;48.168;12.818;2023-03-13T01:58:31;5.20;44.90
1455;DHT22;721;48.168;12.818;2023-03-13T02:00:59;5.10;42.70
1455;DHT22;721;48.168;12.818;2023-03-13T02:03:27;5.10;41.80
1455;DHT22;721;48.168;12.818;2023-03-13T02:05:57;5.10;43.70
1455;DHT22;721;48.168;12.818;2023-03-13T02:08:30;5.10;43.60
1455;DHT22;721;48.168;12.818;2023-03-13T02:11:05;5.10;44.50
1455;DHT22;721;48.168;12.818;2023-03-13T02:13:33;5.10;43.60
1455;DHT22;721;48.168;12.818;2023-03-13T02:16:00;5.10;41.80
1455;DHT22;721;48.168;12.818;2023-03-13T02:18:27;5.10;40.50
1455;DHT22;721;48.168;12.818;2023-03-13T02:20:57;5.00;42.50
1455;DHT22;721;48.168;12.818;2023-03-13T02:23:32;5.00;44.80
1455;DHT22;721;48.168;12.818;2023-03-13T02:26:02;5.00;43.80
1455;DHT22;721;48.168;12.818;2023-03-13T02:28:31;5.00;42.90
1455;DHT22;721;48.168;12.818;2023-03-13T02:30:59;5.00;41.70
1455;DHT22;721;48.168;12.818;2023-03-13T02:33:29;5.00;41.70
1455;DHT22;721;48.168;12.818;2023-03-13T02:35:58;4.90;43.40
1455;DHT22;721;48.168;12.818;2023-03-13T02:38:28;4.90;44.90
1455;DHT22;721;48.168;12.818;2023-03-13T02:40:57;4.90;43.30
1455;DHT22;721;48.168;12.818;2023-03-13T02:43:29;4.90;43.70
1455;DHT22;721;48.168;12.818;2023-03-13T02:46:04;4.90;43.40
1455;DHT22;721;48.168;12.818;2023-03-13T02:48:33;5.00;43.20
1455;DHT22;721;48.168;12.818;2023-03-13T02:51:02;5.00;41.80
1455;DHT22;721;48.168;12.818;2023-03-13T02:53:31;4.90;44.20
1455;DHT22;721;48.168;12.818;2023-03-13T02:55:59;4.90;42.70
1455;DHT22;721;48.168;12.818;2023-03-13T02:58:27;4.90;41.30
1455;DHT22;721;48.168;12.818;2023-03-13T03:01:00;4.90;40.30
1455;DHT22;721;48.168;12.818;2023-03-13T03:03:33;5.00;40.90
1455;DHT22;721;48.168;12.818;2023-03-13T03:06:01;4.90;42.30
1455;DHT22;721;48.168;12.818;2023-03-13T03:08:28;4.90;43.70
1455;DHT22;721;48.168;12.818;2023-03-13T03:10:55;4.80;43.20
1455;DHT22;721;48.168;12.818;2023-03-13T03:13:21;4.90;43.10
1455;DHT22;721;48.168;12.818;2023-03-13T03:15:50;5.00;43.00
1455;DHT22;721;48.168;12.818;2023-03-13T03:18:16;5.00;44.10
1455;DHT22;721;48.168;12.818;2023-03-13T03:20:43;4.80;45.30
1455;DHT22;721;48.168;12.818;2023-03-13T03:23:10;4.80;45.20
1455;DHT22;721;48.168;12.818;2023-03-13T03:25:37;4.80;43.90
1455;DHT22;721;48.168;12.818;2023-03-13T03:28:04;4.80;43.20
1455;DHT22;721;48.168;12.818;2023-03-13T03:30:31;4.70;43.90
1455;DHT22;721;48.168;12.818;2023-03-13T03:33:01;4.70;45.50
1455;DHT22;721;48.168;12.818;2023-03-13T03:35:28;4.70;46.60
1455;DHT22;721;48.168;12.818;2023-03-13T03:37:55;4.80;44.30
1455;DHT22;721;48.168;12.818;2023-03-13T03:40:22;4.50;47.00
1455;DHT22;721;48.168;12.818;2023-03-13T03:42:49;4.50;49.50
1455;DHT22;721;48.168;12.818;2023-03-13T03:45:15;4.50;47.00
1455;DHT22;721;48.168;12.818;2023-03-13T03:47:43;4.50;46.00
1455;DHT22;721;48.168;12.818;2023-03-13T03:50:11;4.40;50.20
1455;DHT22;721;48.168;12.818;2023-03-13T03:52:38;4.30;51.50
1455;DHT22;721;48.168;12.818;2023-03-13T03:55:05;4.30;51.10
1455;DHT22;721;48.168;12.818;2023-03-13T03:57:32;4.20;53.00
1455;DHT22;721;48.168;12.818;2023-03-13T03:59:59;4.20;54.00
1455;DHT22;721;48.168;12.818;2023-03-13T04:02:25;4.30;53.80
1455;DHT22;721;48.168;12.818;2023-03-13T04:04:52;4.90;54.70
1455;DHT22;721;48.168;12.818;2023-03-13T04:07:20;4.40;52.10
1455;DHT22;721;48.168;12.818;2023-03-13T04:09:47;4.40;51.10
1455;DHT22;721;48.168;12.818;2023-03-13T04:12:14;4.40;51.80
1455;DHT22;721;48.168;12.818;2023-03-13T04:14:41;4.30;52.60
1455;DHT22;721;48.168;12.818;2023-03-13T04:17:07;4.30;53.20
1455;DHT22;721;48.168;12.818;2023-03-13T04:19:34;4.40;52.10
1455;DHT22;721;48.168;12.818;2023-03-13T04:22:01;4.50;50.10
1455;DHT22;721;48.168;12.818;2023-03-13T04:24:29;4.40;51.00
1455;DHT22;721;48.168;12.818;2023-03-13T04:26:56;4.50;52.30
1455;DHT22;721;48.168;12.818;2023-03-13T04:29:23;4.50;51.70
1455;DHT22;721;48.168;12.818;2023-03-13T04:31:50;4.50;50.00
1455;DHT22;721;48.168;12.818;2023-03-13T04:34:17;4.50;52.50
1455;DHT22;721;48.168;12.818;2023-03-13T04:36:44;4.50;52.60
1455;DHT22;721;48.168;12.818;2023-03-13T04:39:11;4.60;50.80
1455;DHT22;721;48.168;12.818;2023-03-13T04:41:39;4.70;49.90
1455;DHT22;721;48.168;12.818;2023-03-13T04:44:06;4.70;49.80
1455;DHT22;721;48.168;12.818;2023-03-13T04:46:32;4.70;49.70
1455;DHT22;721;48.168;12.818;2023-03-13T04:48:59;4.70;50.00
1455;DHT22;721;48.168;12.818;2023-03-13T04:51:26;4.70;50.00
1455;DHT22;721;48.168;12.818;2023-03-13T04:53:54;4.80;49.90
1455;DHT22;721;48.168;12.818;2023-03-13T04:56:22;4.80;49.80
1455;DHT22;721;48.168;12.818;2023-03-13T04:58:50;4.80;50.80
1455;DHT22;721;48.168;12.818;2023-03-13T05:01:17;4.80;48.70
1455;DHT22;721;48.168;12.818;2023-03-13T05:03:44;4.80;49.80
1455;DHT22;721;48.168;12.818;2023-03-13T05:06:11;4.90;49.10
1455;DHT22;721;48.168;12.818;2023-03-13T05:08:38;4.90;48.90
1455;DHT22;721;48.168;12.818;2023-03-13T05:11:05;5.00;48.10
1455;DHT22;721;48.168;12.818;2023-03-13T05:13:32;4.90;49.00
1455;DHT22;721;48.168;12.818;2023-03-13T05:16:00;5.10;47.50
1455;DHT22;721;48.168;12.818;2023-03-13T05:18:27;5.00;47.00
1455;DHT22;721;48.168;12.818;2023-03-13T05:20:54;5.00;47.00
1455;DHT22;721;48.168;12.818;2023-03-13T05:23:21;5.10;45.90
1455;DHT22;721;48.168;12.818;2023-03-13T05:25:48;5.10;45.50
1455;DHT22;721;48.168;12.818;2023-03-13T05:28:14;5.20;43.50
1455;DHT22;721;48.168;12.818;2023-03-13T05:30:41;5.20;43.30
1455;DHT22;721;48.168;12.818;2023-03-13T05:33:09;5.30;43.00
1455;DHT22;721;48.168;12.818;2023-03-13T05:35:36;5.30;41.10
1455;DHT22;721;48.168;12.818;2023-03-13T05:38:03;5.30;41.20
1455;DHT22;721;48.168;12.818;2023-03-13T05:40:30;5.30;40.60
1455;DHT22;721;48.168;12.818;2023-03-13T05:42:56;5.30;40.40
1455;DHT22;721;48.168;12.818;2023-03-13T05:45:24;5.40;40.60
1455;DHT22;721;48.168;12.818;2023-03-13T05:47:51;5.40;39.60
1455;DHT22;721;48.168;12.818;2023-03-13T05:50:19;5.40;39.40
1455;DHT22;721;48.168;12.818;2023-03-13T05:52:46;5.40;39.20
1455;DHT22;721;48.168;12.818;2023-03-13T05:55:13;5.40;39.30
1455;DHT22;721;48.168;12.818;2023-03-13T05:57:43;5.50;38.10
1455;DHT22;721;48.168;12.818;2023-03-13T06:00:11;5.50;37.50
1455;DHT22;721;48.168;12.818;2023-03-13T06:02:38;5.50;38.70
1455;DHT22;721;48.168;12.818;2023-03-13T06:05:05;5.40;38.10
1455;DHT22;721;48.168;12.818;2023-03-13T06:07:33;5.50;37.90
1455;DHT22;721;48.168;12.818;2023-03-13T06:10:00;5.50;36.80
1455;DHT22;721;48.168;12.818;2023-03-13T06:12:27;5.60;38.20
1455;DHT22;721;48.168;12.818;2023-03-13T06:14:54;5.60;36.90
1455;DHT22;721;48.168;12.818;2023-03-13T06:17:20;6.00;37.10
1455;DHT22;721;48.168;12.818;2023-03-13T06:19:47;5.70;35.50
1455;DHT22;721;48.168;12.818;2023-03-13T06:22:15;5.80;34.90
1455;DHT22;721;48.168;12.818;2023-03-13T06:24:44;5.90;35.90
1455;DHT22;721;48.168;12.818;2023-03-13T06:27:13;5.90;33.90
1455;DHT22;721;48.168;12.818;2023-03-13T06:29:40;5.90;34.60
1455;DHT22;721;48.168;12.818;2023-03-13T06:32:07;5.90;32.80
1455;DHT22;721;48.168;12.818;2023-03-13T06:34:34;5.90;33.80
1455;DHT22;721;48.168;12.818;2023-03-13T06:37:00;6.00;37.00
1455;DHT22;721;48.168;12.818;2023-03-13T06:39:28;6.10;36.10
1455;DHT22;721;48.168;12.818;2023-03-13T06:41:56;6.20;33.10
1455;DHT22;721;48.168;12.818;2023-03-13T06:44:23;6.30;32.10
1455;DHT22;721;48.168;12.818;2023-03-13T06:46:50;6.20;33.10
1455;DHT22;721;48.168;12.818;2023-03-13T06:49:16;6.40;31.50
1455;DHT22;721;48.168;12.818;2023-03-13T06:51:43;6.40;30.60
1455;DHT22;721;48.168;12.818;2023-03-13T06:54:10;6.50;29.30
1455;DHT22;721;48.168;12.818;2023-03-13T06:56:37;6.60;29.00
1455;DHT22;721;48.168;12.818;2023-03-13T06:59:05;6.80;28.70
1455;DHT22;721;48.168;12.818;2023-03-13T07:01:32;6.70;27.40
1455;DHT22;721;48.168;12.818;2023-03-13T07:03:58;6.70;27.60
1455;DHT22;721;48.168;12.818;2023-03-13T07:06:25;6.80;26.30
1455;DHT22;721;48.168;12.818;2023-03-13T07:08:52;6.80;26.30
1455;DHT22;721;48.168;12.818;2023-03-13T07:11:19;6.90;26.70
1455;DHT22;721;48.168;12.818;2023-03-13T07:13:46;7.00;25.40
1455;DHT22;721;48.168;12.818;2023-03-13T07:16:14;7.10;25.50
1455;DHT22;721;48.168;12.818;2023-03-13T07:18:41;7.20;25.90
1455;DHT22;721;48.168;12.818;2023-03-13T07:21:09;7.40;25.60
1455;DHT22;721;48.168;12.818;2023-03-13T07:23:36;7.10;25.40
1455;DHT22;721;48.168;12.818;2023-03-13T07:26:05;7.20;27.60
1455;DHT22;721;48.168;12.818;2023-03-13T07:28:32;7.20;28.20
1455;DHT22;721;48.168;12.818;2023-03-13T07:31:04;7.20;26.70
1455;DHT22;721;48.168;12.818;2023-03-13T07:33:32;7.20;27.40
1455;DHT22;721;48.168;12.818;2023-03-13T07:35:59;7.30;26.70
1455;DHT22;721;48.168;12.818;2023-03-13T07:38:26;7.30;25.50
1455;DHT22;721;48.168;12.818;2023-03-13T07:40:54;7.40;25.70
1455;DHT22;721;48.168;12.818;2023-03-13T07:43:21;7.50;24.60
1455;DHT22;721;48.168;12.818;2023-03-13T07:45:55;7.50;23.60
1455;DHT22;721;48.168;12.818;2023-03-13T07:48:23;7.60;22.00
1455;DHT22;721;48.168;12.818;2023-03-13T07:50:53;7.70;22.70
1455;DHT22;721;48.168;12.818;2023-03-13T07:53:20;7.80;24.50
1455;DHT22;721;48.168;12.818;2023-03-13T07:55:57;7.70;23.10
1455;DHT22;721;48.168;12.818;2023-03-13T07:58:25;8.10;22.20
1455;DHT22;721;48.168;12.818;2023-03-13T08:00:53;8.00;20.70
1455;DHT22;721;48.168;12.818;2023-03-13T08:03:20;8.10;20.50
1455;DHT22;721;48.168;12.818;2023-03-13T08:05:47;8.00;20.80
1455;DHT22;721;48.168;12.818;2023-03-13T08:08:15;8.10;21.40
1455;DHT22;721;48.168;12.818;2023-03-13T08:10:42;8.20;22.00
1455;DHT22;721;48.168;12.818;2023-03-13T08:13:09;8.20;22.30
1455;DHT22;721;48.168;12.818;2023-03-13T08:15:36;8.40;22.30
1455;DHT22;721;48.168;12.818;2023-03-13T08:18:03;8.30;23.40
1455;DHT22;721;48.168;12.818;2023-03-13T08:20:30;8.30;25.90
1455;DHT22;721;48.168;12.818;2023-03-13T08:22:56;8.50;24.40
1455;DHT22;721;48.168;12.818;2023-03-13T08:25:24;8.50;26.20
1455;DHT22;721;48.168;12.818;2023-03-13T08:27:51;8.40;25.40
1455;DHT22;721;48.168;12.818;2023-03-13T08:30:18;8.40;26.40
1455;DHT22;721;48.168;12.818;2023-03-13T08:32:45;8.40;25.30
1455;DHT22;721;48.168;12.818;2023-03-13T08:35:12;8.40;24.30
1455;DHT22;721;48.168;12.818;2023-03-13T08:37:38;8.50;24.20
1455;DHT22;721;48.168;12.818;2023-03-13T08:40:06;8.40;24.10
1455;DHT22;721;48.168;12.818;2023-03-13T08:42:37;8.50;23.70
1455;DHT22;721;48.168;12.818;2023-03-13T08:45:06;8.50;24.70
1455;DHT22;721;48.168;12.818;2023-03-13T08:47:33;8.50;22.90
1455;DHT22;721;48.168;12.818;2023-03-13T08:50:00;8.60;24.20
1455;DHT22;721;48.168;12.818;2023-03-13T08:52:26;8.50;23.50
1455;DHT22;721;48.168;12.818;2023-03-13T08:54:53;8.60;23.30
1455;DHT22;721;48.168;12.818;2023-03-13T08:57:20;8.50;22.20
1455;DHT22;721;48.168;12.818;2023-03-13T08:59:49;8.50;24.00
1455;DHT22;721;48.168;12.818;2023-03-13T09:02:16;8.80;25.20
1455;DHT22;721;48.168;12.818;2023-03-13T09:04:46;8.50;25.90
1455;DHT22;721;48.168;12.818;2023-03-13T09:07:13;8.40;25.90
1455;DHT22;721;48.168;12.818;2023-03-13T09:09:40;8.40;23.70
1455;DHT22;721;48.168;12.818;2023-03-13T09:12:07;8.40;22.80
1455;DHT22;721;48.168;12.818;2023-03-13T09:14:34;8.40;23.10
1455;DHT22;721;48.168;12.818;2023-03-13T09:17:02;8.50;21.80
1455;DHT22;721;48.168;12.818;2023-03-13T09:19:29;8.60;23.00
1455;DHT22;721;48.168;12.818;2023-03-13T09:21:56;8.60;23.60
1455;DHT22;721;48.168;12.818;2023-03-13T09:24:23;8.70;24.60
1455;DHT22;721;48.168;12.818;2023-03-13T09:26:50;8.80;23.50
1455;DHT22;721;48.168;12.818;2023-03-13T09:29:17;8.90;24.80
1455;DHT22;721;48.168;12.818;2023-03-13T09:31:44;8.90;26.20
1455;DHT22;721;48.168;12.818;2023-03-13T09:34:12;9.10;27.80
1455;DHT22;721;48.168;12.818;2023-03-13T09:36:39;9.20;25.60
1455;DHT22;721;48.168;12.818;2023-03-13T09:39:06;9.20;23.60
1455;DHT22;721;48.168;12.818;2023-03-13T09:41:37;9.20;23.00
1455;DHT22;721;48.168;12.818;2023-03-13T09:44:10;9.30;20.40
1455;DHT22;721;48.168;12.818;2023-03-13T09:46:43;9.40;22.20
1455;DHT22;721;48.168;12.818;2023-03-13T09:49:24;9.40;24.50
1455;DHT22;721;48.168;12.818;2023-03-13T09:51:58;9.40;25.10
1455;DHT22;721;48.168;12.818;2023-03-13T09:54:30;9.50;23.20
1455;DHT22;721;48.168;12.818;2023-03-13T09:57:02;9.40;23.20
1455;DHT22;721;48.168;12.818;2023-03-13T09:59:40;9.50;22.20
1455;DHT22;721;48.168;12.818;2023-03-13T10:02:20;9.40;22.00
1455;DHT22;721;48.168;12.818;2023-03-13T10:04:54;9.40;19.40
1455;DHT22;721;48.168;12.818;2023-03-13T10:07:22;9.60;20.30
1455;DHT22;721;48.168;12.818;2023-03-13T10:09:49;9.50;22.90
1455;DHT22;721;48.168;12.818;2023-03-13T10:12:19;9.50;22.20
1455;DHT22;721;48.168;12.818;2023-03-13T10:14:53;9.50;21.60
1455;DHT22;721;48.168;12.818;2023-03-13T10:17:30;9.50;22.90
1455;DHT22;721;48.168;12.818;2023-03-13T10:20:00;9.60;22.20
1455;DHT22;721;48.168;12.818;2023-03-13T10:22:33;9.80;22.50
1455;DHT22;721;48.168;12.818;2023-03-13T10:25:05;9.80;23.60
1455;DHT22;721;48.168;12.818;2023-03-13T10:27:42;9.80;23.40
1455;DHT22;721;48.168;12.818;2023-03-13T10:30:18;10.00;23.90
1455;DHT22;721;48.168;12.818;2023-03-13T10:32:47;10.10;22.70
1455;DHT22;721;48.168;12.818;2023-03-13T10:35:21;10.20;22.90
1455;DHT22;721;48.168;12.818;2023-03-13T10:37:49;10.30;18.90
1455;DHT22;721;48.168;12.818;2023-03-13T10:40:21;10.40;15.80
1455;DHT22;721;48.168;12.818;2023-03-13T10:42:50;10.50;15.60
1455;DHT22;721;48.168;12.818;2023-03-13T10:45:19;10.70;13.00
1455;DHT22;721;48.168;12.818;2023-03-13T10:47:53;10.80;12.10
1455;DHT22;721;48.168;12.818;2023-03-13T10:50:23;10.80;8.50
1455;DHT22;721;48.168;12.818;2023-03-13T10:52:50;11.00;10.10
1455;DHT22;721;48.168;12.818;2023-03-13T10:55:18;11.10;9.40
1455;DHT22;721;48.168;12.818;2023-03-13T10:57:54;11.20;11.00
1455;DHT22;721;48.168;12.818;2023-03-13T11:00:28;11.40;8.70
1455;DHT22;721;48.168;12.818;2023-03-13T11:02:55;11.70;7.60
1455;DHT22;721;48.168;12.818;2023-03-13T11:05:32;11.90;5.70
1455;DHT22;721;48.168;12.818;2023-03-13T11:08:20;12.10;5.80
1455;DHT22;721;48.168;12.818;2023-03-13T11:10:55;12.40;5.20
1455;DHT22;721;48.168;12.818;2023-03-13T11:13:43;12.50;3.90
1455;DHT22;721;48.168;12.818;2023-03-13T11:16:18;12.90;4.70
1455;DHT22;721;48.168;12.818;2023-03-13T11:21:48;13.30;2.00
1455;DHT22;721;48.168;12.818;2023-03-13T11:24:26;13.50;1.00
1455;DHT22;721;48.168;12.818;2023-03-13T11:27:01;13.70;1.00
1455;DHT22;721;48.168;12.818;2023-03-13T11:29:39;13.70;1.00
1455;DHT22;721;48.168;12.818;2023-03-13T11:32:18;13.90;1.00
1455;DHT22;721;48.168;12.818;2023-03-13T11:34:49;13.90;1.00
1455;DHT22;721;48.168;12.818;2023-03-13T11:37:20;14.00;1.00
1455;DHT22;721;48.168;12.818;2023-03-13T11:39:56;14.00;1.00
1455;DHT22;721;48.168;12.818;2023-03-13T11:42:42;14.00;1.00
1455;DHT22;721;48.168;12.818;2023-03-13T11:45:20;14.10;1.00
1455;DHT22;721;48.168;12.818;2023-03-13T11:47:55;14.10;1.00
1455;DHT22;721;48.168;12.818;2023-03-13T11:50:31;14.30;1.00
1455;DHT22;721;48.168;12.818;2023-03-13T11:55:58;14.60;1.00
1455;DHT22;721;48.168;12.818;2023-03-13T12:01:33;15.00;1.00
1455;DHT22;721;48.168;12.818;2023-03-13T12:04:03;15.20;1.00
1455;DHT22;721;48.168;12.818;2023-03-13T12:06:34;15.30;1.00
1455;DHT22;721;48.168;12.818;2023-03-13T12:09:08;15.40;1.00
1455;DHT22;721;48.168;12.818;2023-03-13T12:11:39;15.50;1.00
1455;DHT22;721;48.168;12.818;2023-03-13T12:14:12;15.60;1.00
1455;DHT22;721;48.168;12.818;2023-03-13T12:16:42;15.70;1.00
1455;DHT22;721;48.168;12.818;2023-03-13T12:19:14;16.00;1.00
1455;DHT22;721;48.168;12.818;2023-03-13T12:21:46;16.20;1.00
1455;DHT22;721;48.168;12.818;2023-03-13T12:24:21;16.30;1.00
1455;DHT22;721;48.168;12.818;2023-03-13T12:26:50;16.40;1.00
1455;DHT22;721;48.168;12.818;2023-03-13T12:29:26;16.40;1.00
1455;DHT22;721;48.168;12.818;2023-03-13T12:31:58;16.50;1.00
1455;DHT22;721;48.168;12.818;2023-03-13T12:34:32;16.60;1.00
1455;DHT22;721;48.168;12.818;2023-03-13T12:37:05;16.70;1.00
1455;DHT22;721;48.168;12.818;2023-03-13T12:39:40;16.90;1.00
1455;DHT22;721;48.168;12.818;2023-03-13T12:42:17;16.90;1.00
1455;DHT22;721;48.168;12.818;2023-03-13T12:44:46;17.10;1.00
1455;DHT22;721;48.168;12.818;2023-03-13T12:47:16;17.20;1.00
1455;DHT22;721;48.168;12.818;2023-03-13T12:50:04;17.20;1.00
1455;DHT22;721;48.168;12.818;2023-03-13T12:58:51;17.90;1.00
1455;DHT22;721;48.168;12.818;2023-03-13T13:01:28;18.10;1.00
1455;DHT22;721;48.168;12.818;2023-03-13T13:03:58;18.20;1.00
1455;DHT22;721;48.168;12.818;2023-03-13T13:06:27;18.20;1.00
1455;DHT22;721;48.168;12.818;2023-03-13T13:09:16;18.20;1.00
1455;DHT22;721;48.168;12.818;2023-03-13T13:11:50;18.20;1.00
1455;DHT22;721;48.168;12.818;2023-03-13T13:17:33;18.40;1.00
1455;DHT22;721;48.168;12.818;2023-03-13T13:23:31;18.20;1.00
1455;DHT22;721;48.168;12.818;2023-03-13T13:32:30;18.10;1.00
1455;DHT22;721;48.168;12.818;2023-03-13T13:35:02;18.10;1.00
1455;DHT22;721;48.168;12.818;2023-03-13T13:37:31;18.20;1.00
1455;DHT22;721;48.168;12.818;2023-03-13T13:40:21;18.30;1.00
1455;DHT22;721;48.168;12.818;2023-03-13T13:42:50;18.40;1.00
1455;DHT22;721;48.168;12.818;2023-03-13T13:45:24;18.30;1.00
1455;DHT22;721;48.168;12.818;2023-03-13T13:53:44;18.90;1.00
1455;DHT22;721;48.168;12.818;2023-03-13T13:56:33;19.00;1.00
1455;DHT22;721;48.168;12.818;2023-03-13T13:59:05;19.30;1.00
1455;DHT22;721;48.168;12.818;2023-03-13T14:01:41;19.70;1.00
1455;DHT22;721;48.168;12.818;2023-03-13T14:04:13;20.00;1.00
1455;DHT22;721;48.168;12.818;2023-03-13T14:06:44;20.20;1.00
1455;DHT22;721;48.168;12.818;2023-03-13T14:09:21;20.40;1.00
1455;DHT22;721;48.168;12.818;2023-03-13T14:11:51;20.00;1.00
1455;DHT22;721;48.168;12.818;2023-03-13T14:14:20;20.00;1.00
1455;DHT22;721;48.168;12.818;2023-03-13T14:16:48;20.10;1.00
1455;DHT22;721;48.168;12.818;2023-03-13T14:19:24;20.20;1.00
1455;DHT22;721;48.168;12.818;2023-03-13T14:21:57;20.40;1.00
1455;DHT22;721;48.168;12.818;2023-03-13T14:24:26;20.60;1.00
1455;DHT22;721;48.168;12.818;2023-03-13T14:26:52;20.60;1.00
1455;DHT22;721;48.168;12.818;2023-03-13T14:29:19;20.70;1.00
1455;DHT22;721;48.168;12.818;2023-03-13T14:31:52;20.50;1.00
1455;DHT22;721;48.168;12.818;2023-03-13T14:34:19;20.70;1.00
1455;DHT22;721;48.168;12.818;2023-03-13T14:36:47;20.70;1.00
1455;DHT22;721;48.168;12.818;2023-03-13T14:39:17;20.80;1.00
1455;DHT22;721;48.168;12.818;2023-03-13T14:41:47;20.80;1.00
1455;DHT22;721;48.168;12.818;2023-03-13T14:44:21;21.00;1.00
1455;DHT22;721;48.168;12.818;2023-03-13T14:46:53;21.00;1.00
1455;DHT22;721;48.168;12.818;2023-03-13T14:49:23;21.00;1.00
1455;DHT22;721;48.168;12.818;2023-03-13T14:51:58;21.00;1.00
1455;DHT22;721;48.168;12.818;2023-03-13T14:54:28;21.10;1.00
1455;DHT22;721;48.168;12.818;2023-03-13T14:57:12;21.20;1.00
1455;DHT22;721;48.168;12.818;2023-03-13T14:59:40;21.30;1.00
1455;DHT22;721;48.168;12.818;2023-03-13T15:02:18;21.20;1.00
1455;DHT22;721;48.168;12.818;2023-03-13T15:04:54;21.20;1.00
1455;DHT22;721;48.168;12.818;2023-03-13T15:07:23;21.30;1.00
1455;DHT22;721;48.168;12.818;2023-03-13T15:09:50;21.20;1.00
1455;DHT22;721;48.168;12.818;2023-03-13T15:12:20;21.40;1.00
1455;DHT22;721;48.168;12.818;2023-03-13T15:14:49;21.40;1.00
1455;DHT22;721;48.168;12.818;2023-03-13T15:17:19;21.40;1.00
1455;DHT22;721;48.168;12.818;2023-03-13T15:19:53;21.40;1.00
1455;DHT22;721;48.168;12.818;2023-03-13T15:22:24;21.50;1.00
1455;DHT22;721;48.168;12.818;2023-03-13T15:24:52;21.30;1.00
1455;DHT22;721;48.168;12.818;2023-03-13T15:27:22;21.40;1.00
1455;DHT22;721;48.168;12.818;2023-03-13T15:29:50;21.40;1.00
1455;DHT22;721;48.168;12.818;2023-03-13T15:32:24;21.30;1.00
1455;DHT22;721;48.168;12.818;2023-03-13T15:34:52;21.00;1.00
1455;DHT22;721;48.168;12.818;2023-03-13T15:37:22;20.80;1.00
1455;DHT22;721;48.168;12.818;2023-03-13T15:39:49;20.80;1.00
1455;DHT22;721;48.168;12.818;2023-03-13T15:42:16;20.40;1.00
1455;DHT22;721;48.168;12.818;2023-03-13T15:44:44;20.00;1.00
1455;DHT22;721;48.168;12.818;2023-03-13T15:47:17;19.90;1.00
1455;DHT22;721;48.168;12.818;2023-03-13T15:49:44;19.80;1.00
1455;DHT22;721;48.168;12.818;2023-03-13T15:52:13;19.60;1.00
1455;DHT22;721;48.168;12.818;2023-03-13T15:54:42;19.60;1.00
1455;DHT22;721;48.168;12.818;2023-03-13T15:57:10;19.50;1.00
1455;DHT22;721;48.168;12.818;2023-03-13T15:59:38;19.30;1.00
1455;DHT22;721;48.168;12.818;2023-03-13T16:02:13;19.20;1.00
1455;DHT22;721;48.168;12.818;2023-03-13T16:04:43;19.20;1.00
1455;DHT22;721;48.168;12.818;2023-03-13T16:07:32;19.10;1.00
1455;DHT22;721;48.168;12.818;2023-03-13T16:09:59;19.00;1.00
1455;DHT22;721;48.168;12.818;2023-03-13T16:12:26;18.90;1.00
1455;DHT22;721;48.168;12.818;2023-03-13T16:14:53;18.80;1.00
1455;DHT22;721;48.168;12.818;2023-03-13T16:17:21;18.80;1.00
1455;DHT22;721;48.168;12.818;2023-03-13T16:19:50;18.80;1.00
1455;DHT22;721;48.168;12.818;2023-03-13T16:22:16;18.50;1.00
1455;DHT22;721;48.168;12.818;2023-03-13T16:24:43;18.50;1.00
1455;DHT22;721;48.168;12.818;2023-03-13T16:27:14;18.50;1.00
1455;DHT22;721;48.168;12.818;2023-03-13T16:29:41;18.40;1.00
1455;DHT22;721;48.168;12.818;2023-03-13T16:32:10;18.40;1.00
1455;DHT22;721;48.168;12.818;2023-03-13T16:34:39;18.30;1.00
1455;DHT22;721;48.168;12.818;2023-03-13T16:37:11;18.20;1.00
1455;DHT22;721;48.168;12.818;2023-03-13T16:39:38;18.10;1.00
1455;DHT22;721;48.168;12.818;2023-03-13T16:42:05;18.00;1.00
1455;DHT22;721;48.168;12.818;2023-03-13T16:44:32;17.90;1.00
1455;DHT22;721;48.168;12.818;2023-03-13T16:46:58;18.00;1.00
1455;DHT22;721;48.168;12.818;2023-03-13T16:49:25;17.90;1.00
1455;DHT22;721;48.168;12.818;2023-03-13T16:51:53;18.00;1.00
1455;DHT22;721;48.168;12.818;2023-03-13T16:54:20;18.00;1.00
1455;DHT22;721;48.168;12.818;2023-03-13T16:56:47;17.90;1.00
1455;DHT22;721;48.168;12.818;2023-03-13T16:59:15;17.80;1.00
1455;DHT22;721;48.168;12.818;2023-03-13T17:01:44;17.60;1.00
1455;DHT22;721;48.168;12.818;2023-03-13T17:04:11;17.50;1.00
1455;DHT22;721;48.168;12.818;2023-03-13T17:06:39;17.50;1.00